sensor_id;sensor_type;location;lat;lon;timestamp;pressure;altitude;pressure_sealevel;temperature;humidity
51081;BME280;37130;55.670;37.596;2023-09-12T00:00:43;99853.66;;;9.24;92.98
51081;BME280;37130;55.670;37.596;2023-09-12T00:03:11;99859.78;;;9.24;92.57
51081;BME280;37130;55.670;37.596;2023-09-12T00:05:38;99865.19;;;9.21;93.09
51081;BME280;37130;55.670;37.596;2023-09-12T00:08:06;99856.53;;;9.17;92.93
51081;BME280;37130;55.670;37.596;2023-09-12T00:10:33;99858.50;;;9.12;93.27
51081;BME280;37130;55.670;37.596;2023-09-12T00:13:01;99841.28;;;9.00;93.12
51081;BME280;37130;55.670;37.596;2023-09-12T00:15:29;99869.94;;;9.11;93.22
51081;BME280;37130;55.670;37.596;2023-09-12T00:17:57;99857.25;;;8.97;93.20
51081;BME280;37130;55.670;37.596;2023-09-12T00:20:24;99870.44;;;8.99;93.37
51081;BME280;37130;55.670;37.596;2023-09-12T00:22:52;99873.06;;;8.99;93.42
51081;BME280;37130;55.670;37.596;2023-09-12T00:25:21;99765.44;;;8.32;93.48
51081;BME280;37130;55.670;37.596;2023-09-12T00:27:49;99835.38;;;8.70;93.28
51081;BME280;37130;55.670;37.596;2023-09-12T00:30:16;99773.34;;;8.32;93.50
51081;BME280;37130;55.670;37.596;2023-09-12T00:32:46;99831.97;;;8.67;93.54
51081;BME280;37130;55.670;37.596;2023-09-12T00:35:14;99770.13;;;8.24;93.53
51081;BME280;37130;55.670;37.596;2023-09-12T00:37:41;99839.41;;;8.55;93.50
51081;BME280;37130;55.670;37.596;2023-09-12T00:40:08;99883.91;;;8.91;93.75
51081;BME280;37130;55.670;37.596;2023-09-12T00:42:36;99880.56;;;8.86;93.63
51081;BME280;37130;55.670;37.596;2023-09-12T00:45:03;99862.78;;;8.66;94.02
51081;BME280;37130;55.670;37.596;2023-09-12T00:47:31;99801.31;;;8.38;93.78
51081;BME280;37130;55.670;37.596;2023-09-12T00:49:59;99883.25;;;8.85;93.68
51081;BME280;37130;55.670;37.596;2023-09-12T00:52:29;99887.53;;;8.89;93.96
51081;BME280;37130;55.670;37.596;2023-09-12T00:54:58;99876.44;;;8.79;93.83
51081;BME280;37130;55.670;37.596;2023-09-12T00:57:25;99839.41;;;8.55;94.16
51081;BME280;37130;55.670;37.596;2023-09-12T00:59:53;99874.91;;;8.72;93.97
51081;BME280;37130;55.670;37.596;2023-09-12T01:02:21;99895.56;;;8.86;93.91
51081;BME280;37130;55.670;37.596;2023-09-12T01:04:51;99860.31;;;8.62;94.04
51081;BME280;37130;55.670;37.596;2023-09-12T01:07:19;99897.56;;;8.79;94.20
51081;BME280;37130;55.670;37.596;2023-09-12T01:09:46;99900.19;;;8.79;94.50
51081;BME280;37130;55.670;37.596;2023-09-12T01:12:14;99885.69;;;8.66;94.62
51081;BME280;37130;55.670;37.596;2023-09-12T01:14:41;99867.53;;;8.56;94.42
51081;BME280;37130;55.670;37.596;2023-09-12T01:17:09;99881.34;;;8.65;94.33
51081;BME280;37130;55.670;37.596;2023-09-12T01:19:36;99888.38;;;8.64;94.31
51081;BME280;37130;55.670;37.596;2023-09-12T01:27:46;99896.31;;;8.64;94.34
51081;BME280;37130;55.670;37.596;2023-09-12T01:30:17;99835.59;;;8.12;94.72
51081;BME280;37130;55.670;37.596;2023-09-12T01:32:47;99905.91;;;8.67;94.60
51081;BME280;37130;55.670;37.596;2023-09-12T01:35:15;99917.44;;;8.64;94.20
51081;BME280;37130;55.670;37.596;2023-09-12T01:37:42;99827.47;;;8.19;94.46
51081;BME280;37130;55.670;37.596;2023-09-12T01:40:10;99900.88;;;8.59;94.75
51081;BME280;37130;55.670;37.596;2023-09-12T01:42:45;99918.25;;;8.66;94.69
51081;BME280;37130;55.670;37.596;2023-09-12T01:45:16;99876.63;;;8.48;94.48
51081;BME280;37130;55.670;37.596;2023-09-12T01:47:47;99902.66;;;8.59;94.79
51081;BME280;37130;55.670;37.596;2023-09-12T01:50:17;99908.66;;;8.64;94.70
51081;BME280;37130;55.670;37.596;2023-09-12T01:52:46;99902.63;;;8.60;95.01
51081;BME280;37130;55.670;37.596;2023-09-12T01:55:14;99911.25;;;8.65;94.73
51081;BME280;37130;55.670;37.596;2023-09-12T01:57:42;99898.34;;;8.56;94.81
51081;BME280;37130;55.670;37.596;2023-09-12T02:00:11;99907.75;;;8.65;94.89
51081;BME280;37130;55.670;37.596;2023-09-12T02:02:39;99914.78;;;8.64;94.82
51081;BME280;37130;55.670;37.596;2023-09-12T02:05:21;99732.28;;;7.48;94.55
51081;BME280;37130;55.670;37.596;2023-09-12T02:07:50;99908.00;;;8.57;94.67
51081;BME280;37130;55.670;37.596;2023-09-12T02:10:17;99826.88;;;8.10;94.86
51081;BME280;37130;55.670;37.596;2023-09-12T02:12:47;99881.31;;;8.40;95.17
51081;BME280;37130;55.670;37.596;2023-09-12T02:15:14;99924.59;;;8.61;95.22
51081;BME280;37130;55.670;37.596;2023-09-12T02:17:42;99877.09;;;8.34;95.09
51081;BME280;37130;55.670;37.596;2023-09-12T02:20:31;99774.81;;;7.64;94.91
51081;BME280;37130;55.670;37.596;2023-09-12T02:22:58;99869.84;;;8.14;95.24
51081;BME280;37130;55.670;37.596;2023-09-12T02:25:26;99843.00;;;8.01;95.25
51081;BME280;37130;55.670;37.596;2023-09-12T02:27:53;99923.28;;;8.47;95.38
51081;BME280;37130;55.670;37.596;2023-09-12T02:30:20;99764.72;;;7.50;94.96
51081;BME280;37130;55.670;37.596;2023-09-12T02:32:48;99932.88;;;8.50;95.48
51081;BME280;37130;55.670;37.596;2023-09-12T02:35:15;99853.53;;;8.01;95.58
51081;BME280;37130;55.670;37.596;2023-09-12T02:37:43;99933.09;;;8.44;95.52
51081;BME280;37130;55.670;37.596;2023-09-12T02:40:10;99924.69;;;8.31;95.58
51081;BME280;37130;55.670;37.596;2023-09-12T02:42:38;99929.72;;;8.39;95.72
51081;BME280;37130;55.670;37.596;2023-09-12T02:45:06;99935.69;;;8.45;95.47
51081;BME280;37130;55.670;37.596;2023-09-12T02:47:34;99928.84;;;8.40;95.18
51081;BME280;37130;55.670;37.596;2023-09-12T02:50:01;99913.38;;;8.27;95.78
51081;BME280;37130;55.670;37.596;2023-09-12T02:52:31;99924.69;;;8.31;95.53
51081;BME280;37130;55.670;37.596;2023-09-12T02:54:58;99936.84;;;8.35;95.48
51081;BME280;37130;55.670;37.596;2023-09-12T02:57:25;99860.22;;;7.86;95.33
51081;BME280;37130;55.670;37.596;2023-09-12T02:59:53;99946.66;;;8.31;95.56
51081;BME280;37130;55.670;37.596;2023-09-12T03:02:20;99862.84;;;7.86;95.16
51081;BME280;37130;55.670;37.596;2023-09-12T03:04:48;99906.72;;;8.16;95.67
51081;BME280;37130;55.670;37.596;2023-09-12T03:07:16;99951.59;;;8.44;95.50
51081;BME280;37130;55.670;37.596;2023-09-12T03:09:43;99945.34;;;8.46;95.64
51081;BME280;37130;55.670;37.596;2023-09-12T03:12:10;99945.13;;;8.52;95.25
51081;BME280;37130;55.670;37.596;2023-09-12T03:14:38;99865.59;;;8.10;95.32
51081;BME280;37130;55.670;37.596;2023-09-12T03:17:05;99868.75;;;8.20;95.30
51081;BME280;37130;55.670;37.596;2023-09-12T03:19:33;99930.81;;;8.60;95.22
51081;BME280;37130;55.670;37.596;2023-09-12T03:22:01;99916.69;;;8.61;95.11
51081;BME280;37130;55.670;37.596;2023-09-12T03:24:28;99958.88;;;8.87;94.97
51081;BME280;37130;55.670;37.596;2023-09-12T03:26:56;99954.41;;;8.89;95.04
51081;BME280;37130;55.670;37.596;2023-09-12T03:29:24;99962.50;;;9.10;94.78
51081;BME280;37130;55.670;37.596;2023-09-12T03:31:51;99913.28;;;9.07;94.89
51081;BME280;37130;55.670;37.596;2023-09-12T03:34:18;99784.22;;;8.49;94.22
51081;BME280;37130;55.670;37.596;2023-09-12T03:36:47;99954.75;;;9.76;94.05
51081;BME280;37130;55.670;37.596;2023-09-12T03:39:15;99907.47;;;9.68;93.74
51081;BME280;37130;55.670;37.596;2023-09-12T03:41:42;99802.59;;;9.23;92.52
51081;BME280;37130;55.670;37.596;2023-09-12T03:44:10;99922.22;;;10.18;92.59
51081;BME280;37130;55.670;37.596;2023-09-12T03:46:38;99930.13;;;10.41;91.77
51081;BME280;37130;55.670;37.596;2023-09-12T03:49:05;99957.09;;;10.92;90.71
51081;BME280;37130;55.670;37.596;2023-09-12T03:51:33;99962.44;;;11.31;88.91
51081;BME280;37130;55.670;37.596;2023-09-12T03:54:02;99938.31;;;11.37;88.33
51081;BME280;37130;55.670;37.596;2023-09-12T03:56:31;99955.81;;;11.60;88.06
51081;BME280;37130;55.670;37.596;2023-09-12T03:58:58;99893.66;;;11.47;86.82
51081;BME280;37130;55.670;37.596;2023-09-12T04:01:27;99970.81;;;12.55;85.67
51081;BME280;37130;55.670;37.596;2023-09-12T04:03:55;99957.66;;;13.21;83.00
51081;BME280;37130;55.670;37.596;2023-09-12T04:06:24;99935.28;;;13.58;80.73
51081;BME280;37130;55.670;37.596;2023-09-12T04:08:51;99954.94;;;13.56;79.88
51081;BME280;37130;55.670;37.596;2023-09-12T04:11:18;99950.63;;;13.37;80.44
51081;BME280;37130;55.670;37.596;2023-09-12T04:14:01;99965.94;;;13.50;80.48
51081;BME280;37130;55.670;37.596;2023-09-12T04:16:28;99979.34;;;13.64;79.26
51081;BME280;37130;55.670;37.596;2023-09-12T04:18:56;99955.28;;;13.50;78.82
51081;BME280;37130;55.670;37.596;2023-09-12T04:21:23;99974.56;;;13.71;78.03
51081;BME280;37130;55.670;37.596;2023-09-12T04:23:51;99980.94;;;14.00;77.33
51081;BME280;37130;55.670;37.596;2023-09-12T04:26:18;99989.41;;;14.22;76.47
51081;BME280;37130;55.670;37.596;2023-09-12T04:28:49;99893.28;;;14.11;75.14
51081;BME280;37130;55.670;37.596;2023-09-12T04:31:17;99974.19;;;16.03;71.54
51081;BME280;37130;55.670;37.596;2023-09-12T04:33:44;99980.81;;;17.69;66.62
51081;BME280;37130;55.670;37.596;2023-09-12T04:36:11;99931.91;;;19.68;60.38
51081;BME280;37130;55.670;37.596;2023-09-12T04:38:39;99986.13;;;21.87;55.95
51081;BME280;37130;55.670;37.596;2023-09-12T04:41:06;99972.25;;;23.10;52.66
51081;BME280;37130;55.670;37.596;2023-09-12T04:43:34;99975.69;;;23.69;50.16
51081;BME280;37130;55.670;37.596;2023-09-12T04:46:01;99974.97;;;23.20;50.69
51081;BME280;37130;55.670;37.596;2023-09-12T04:48:29;99990.03;;;22.84;50.88
51081;BME280;37130;55.670;37.596;2023-09-12T04:50:57;99991.56;;;21.24;53.25
51081;BME280;37130;55.670;37.596;2023-09-12T04:53:24;99944.81;;;19.63;55.66
51081;BME280;37130;55.670;37.596;2023-09-12T04:55:52;99997.13;;;18.77;57.92
51081;BME280;37130;55.670;37.596;2023-09-12T04:58:20;99999.94;;;18.14;58.99
51081;BME280;37130;55.670;37.596;2023-09-12T05:00:48;99990.53;;;17.70;59.64
51081;BME280;37130;55.670;37.596;2023-09-12T05:03:15;99987.97;;;17.30;60.70
51081;BME280;37130;55.670;37.596;2023-09-12T05:05:46;99983.56;;;17.68;60.09
51081;BME280;37130;55.670;37.596;2023-09-12T05:08:14;99991.16;;;19.20;56.55
51081;BME280;37130;55.670;37.596;2023-09-12T05:10:43;99983.78;;;19.91;54.31
51081;BME280;37130;55.670;37.596;2023-09-12T05:13:11;99962.78;;;19.96;53.44
51081;BME280;37130;55.670;37.596;2023-09-12T05:15:40;99989.03;;;19.36;55.03
51081;BME280;37130;55.670;37.596;2023-09-12T05:18:08;100008.75;;;19.24;56.11
51081;BME280;37130;55.670;37.596;2023-09-12T05:20:36;99943.56;;;19.22;54.93
51081;BME280;37130;55.670;37.596;2023-09-12T05:23:03;99962.34;;;18.99;55.20
51081;BME280;37130;55.670;37.596;2023-09-12T05:25:31;100008.38;;;19.98;54.31
51081;BME280;37130;55.670;37.596;2023-09-12T05:27:58;99955.69;;;20.50;52.27
51081;BME280;37130;55.670;37.596;2023-09-12T05:30:26;100014.94;;;21.14;51.56
51081;BME280;37130;55.670;37.596;2023-09-12T05:32:53;100012.72;;;21.71;50.55
51081;BME280;37130;55.670;37.596;2023-09-12T05:35:20;100021.06;;;23.09;48.56
51081;BME280;37130;55.670;37.596;2023-09-12T05:37:50;99969.31;;;24.71;45.04
51081;BME280;37130;55.670;37.596;2023-09-12T05:40:18;100020.53;;;26.73;42.30
51081;BME280;37130;55.670;37.596;2023-09-12T05:42:46;100025.97;;;27.88;40.28
51081;BME280;37130;55.670;37.596;2023-09-12T05:45:14;100025.41;;;28.79;38.90
51081;BME280;37130;55.670;37.596;2023-09-12T05:47:42;100022.31;;;29.96;36.98
51081;BME280;37130;55.670;37.596;2023-09-12T05:50:09;100045.16;;;31.06;34.91
51081;BME280;37130;55.670;37.596;2023-09-12T05:52:37;99922.16;;;30.97;33.96
51081;BME280;37130;55.670;37.596;2023-09-12T05:55:05;100025.00;;;32.33;33.32
51081;BME280;37130;55.670;37.596;2023-09-12T05:57:32;100049.41;;;33.57;31.85
51081;BME280;37130;55.670;37.596;2023-09-12T06:00:00;100043.41;;;34.00;30.48
51081;BME280;37130;55.670;37.596;2023-09-12T06:02:39;100056.16;;;33.68;30.18
51081;BME280;37130;55.670;37.596;2023-09-12T06:05:07;100052.94;;;33.51;30.15
51081;BME280;37130;55.670;37.596;2023-09-12T06:07:34;99965.50;;;33.61;29.23
51081;BME280;37130;55.670;37.596;2023-09-12T06:10:02;100060.75;;;33.14;29.50
51081;BME280;37130;55.670;37.596;2023-09-12T06:12:31;100056.13;;;32.12;30.76
51081;BME280;37130;55.670;37.596;2023-09-12T06:15:00;100052.28;;;31.99;30.63
51081;BME280;37130;55.670;37.596;2023-09-12T06:17:34;100053.06;;;31.93;30.19
51081;BME280;37130;55.670;37.596;2023-09-12T06:20:02;100072.31;;;31.50;30.68
51081;BME280;37130;55.670;37.596;2023-09-12T06:22:35;100051.59;;;31.41;30.71
51081;BME280;37130;55.670;37.596;2023-09-12T06:25:03;100057.94;;;31.70;30.17
51081;BME280;37130;55.670;37.596;2023-09-12T06:27:33;100058.06;;;31.61;30.33
51081;BME280;37130;55.670;37.596;2023-09-12T06:30:01;100006.94;;;32.45;29.03
51081;BME280;37130;55.670;37.596;2023-09-12T06:32:33;100000.16;;;32.41;28.59
51081;BME280;37130;55.670;37.596;2023-09-12T06:35:01;100054.31;;;32.32;29.39
51081;BME280;37130;55.670;37.596;2023-09-12T06:37:31;100072.22;;;33.57;28.08
51081;BME280;37130;55.670;37.596;2023-09-12T06:39:59;99944.34;;;33.75;27.15
51081;BME280;37130;55.670;37.596;2023-09-12T06:42:26;100011.56;;;34.44;26.93
51081;BME280;37130;55.670;37.596;2023-09-12T06:44:54;100065.00;;;35.63;26.10
51081;BME280;37130;55.670;37.596;2023-09-12T06:47:21;100075.19;;;35.63;25.47
51081;BME280;37130;55.670;37.596;2023-09-12T06:49:49;100073.63;;;35.48;25.76
51081;BME280;37130;55.670;37.596;2023-09-12T06:52:20;100020.59;;;35.53;24.91
51081;BME280;37130;55.670;37.596;2023-09-12T06:54:47;100077.16;;;35.81;24.90
51081;BME280;37130;55.670;37.596;2023-09-12T06:57:15;100071.81;;;35.61;25.23
51081;BME280;37130;55.670;37.596;2023-09-12T06:59:43;100071.44;;;35.82;25.02
51081;BME280;37130;55.670;37.596;2023-09-12T07:02:10;100072.34;;;36.56;24.28
51081;BME280;37130;55.670;37.596;2023-09-12T07:04:40;100073.47;;;37.27;23.48
51081;BME280;37130;55.670;37.596;2023-09-12T07:07:07;100075.22;;;37.87;23.01
51081;BME280;37130;55.670;37.596;2023-09-12T07:09:35;100057.75;;;37.40;23.00
51081;BME280;37130;55.670;37.596;2023-09-12T07:12:02;100068.97;;;37.57;22.89
51081;BME280;37130;55.670;37.596;2023-09-12T07:14:29;100075.34;;;37.81;22.35
51081;BME280;37130;55.670;37.596;2023-09-12T07:16:58;100083.88;;;37.56;22.51
51081;BME280;37130;55.670;37.596;2023-09-12T07:19:25;100079.13;;;37.33;22.90
51081;BME280;37130;55.670;37.596;2023-09-12T07:21:53;100079.09;;;37.75;22.51
51081;BME280;37130;55.670;37.596;2023-09-12T07:24:20;100016.25;;;37.04;22.58
51081;BME280;37130;55.670;37.596;2023-09-12T07:26:51;100018.34;;;37.21;22.60
51081;BME280;37130;55.670;37.596;2023-09-12T07:29:19;100067.81;;;38.00;21.96
51081;BME280;37130;55.670;37.596;2023-09-12T07:31:46;100013.06;;;38.13;21.67
51081;BME280;37130;55.670;37.596;2023-09-12T07:34:13;100069.03;;;38.85;21.57
51081;BME280;37130;55.670;37.596;2023-09-12T07:36:41;100072.63;;;38.97;20.95
51081;BME280;37130;55.670;37.596;2023-09-12T07:39:09;100018.25;;;39.08;20.74
51081;BME280;37130;55.670;37.596;2023-09-12T07:41:36;100059.91;;;38.44;21.38
51081;BME280;37130;55.670;37.596;2023-09-12T07:44:03;100050.97;;;38.01;21.61
51081;BME280;37130;55.670;37.596;2023-09-12T07:46:32;100056.63;;;38.58;21.08
51081;BME280;37130;55.670;37.596;2023-09-12T07:48:59;100073.75;;;38.84;20.61
51081;BME280;37130;55.670;37.596;2023-09-12T07:51:26;100019.69;;;37.77;21.25
51081;BME280;37130;55.670;37.596;2023-09-12T07:53:54;100023.78;;;36.97;22.01
51081;BME280;37130;55.670;37.596;2023-09-12T07:56:21;100072.34;;;37.82;21.83
51081;BME280;37130;55.670;37.596;2023-09-12T07:58:48;100020.53;;;38.13;21.29
51081;BME280;37130;55.670;37.596;2023-09-12T08:01:16;100054.03;;;38.52;20.90
51081;BME280;37130;55.670;37.596;2023-09-12T08:03:43;100070.16;;;38.72;20.94
51081;BME280;37130;55.670;37.596;2023-09-12T08:06:11;100057.06;;;38.67;20.93
51081;BME280;37130;55.670;37.596;2023-09-12T08:08:40;100069.72;;;37.52;21.50
51081;BME280;37130;55.670;37.596;2023-09-12T08:11:11;100059.81;;;37.44;21.70
51081;BME280;37130;55.670;37.596;2023-09-12T08:13:38;100068.16;;;36.84;21.71
51081;BME280;37130;55.670;37.596;2023-09-12T08:16:06;100066.56;;;36.03;21.63
51081;BME280;37130;55.670;37.596;2023-09-12T08:18:33;100052.44;;;34.34;23.22
51081;BME280;37130;55.670;37.596;2023-09-12T08:21:01;100048.25;;;32.37;24.24
51081;BME280;37130;55.670;37.596;2023-09-12T08:23:29;100054.75;;;30.29;26.05
51081;BME280;37130;55.670;37.596;2023-09-12T08:25:56;99940.94;;;27.69;28.43
51081;BME280;37130;55.670;37.596;2023-09-12T08:28:24;100020.94;;;27.19;30.12
51081;BME280;37130;55.670;37.596;2023-09-12T08:30:52;100035.44;;;26.53;31.54
51081;BME280;37130;55.670;37.596;2023-09-12T08:33:19;100042.41;;;25.61;32.77
51081;BME280;37130;55.670;37.596;2023-09-12T08:35:49;99959.53;;;24.78;34.01
51081;BME280;37130;55.670;37.596;2023-09-12T08:38:17;100040.34;;;25.54;34.57
51081;BME280;37130;55.670;37.596;2023-09-12T08:40:49;100043.09;;;25.63;34.76
51081;BME280;37130;55.670;37.596;2023-09-12T08:43:17;100044.78;;;26.16;33.44
51081;BME280;37130;55.670;37.596;2023-09-12T08:45:45;100037.72;;;26.39;32.62
51081;BME280;37130;55.670;37.596;2023-09-12T08:48:15;100021.25;;;25.98;32.36
51081;BME280;37130;55.670;37.596;2023-09-12T08:50:44;100044.09;;;25.62;33.17
51081;BME280;37130;55.670;37.596;2023-09-12T08:53:13;100031.13;;;25.47;33.22
51081;BME280;37130;55.670;37.596;2023-09-12T08:55:41;100020.47;;;25.80;33.29
51081;BME280;37130;55.670;37.596;2023-09-12T08:58:08;99978.91;;;26.14;32.50
51081;BME280;37130;55.670;37.596;2023-09-12T09:00:36;99937.09;;;25.90;32.56
51081;BME280;37130;55.670;37.596;2023-09-12T09:03:04;100020.63;;;26.47;32.48
51081;BME280;37130;55.670;37.596;2023-09-12T09:05:33;99944.44;;;25.72;32.33
51081;BME280;37130;55.670;37.596;2023-09-12T09:08:03;100024.34;;;25.77;33.37
51081;BME280;37130;55.670;37.596;2023-09-12T09:10:30;100011.53;;;25.35;33.48
51081;BME280;37130;55.670;37.596;2023-09-12T09:13:17;100018.09;;;24.16;34.35
51081;BME280;37130;55.670;37.596;2023-09-12T09:15:45;100018.19;;;23.30;35.63
51081;BME280;37130;55.670;37.596;2023-09-12T09:18:12;99927.09;;;21.94;37.15
51081;BME280;37130;55.670;37.596;2023-09-12T09:20:40;100000.03;;;21.93;38.06
51081;BME280;37130;55.670;37.596;2023-09-12T09:23:16;100009.94;;;21.31;39.44
51081;BME280;37130;55.670;37.596;2023-09-12T09:25:51;100009.78;;;21.11;39.89
51081;BME280;37130;55.670;37.596;2023-09-12T09:28:20;100007.28;;;21.19;40.84
51081;BME280;37130;55.670;37.596;2023-09-12T09:30:49;99908.16;;;20.71;41.27
51081;BME280;37130;55.670;37.596;2023-09-12T09:33:19;99998.16;;;21.32;40.63
51081;BME280;37130;55.670;37.596;2023-09-12T09:35:47;100010.16;;;21.39;41.24
51081;BME280;37130;55.670;37.596;2023-09-12T09:38:19;100007.75;;;21.45;41.17
51081;BME280;37130;55.670;37.596;2023-09-12T09:40:47;99964.41;;;21.28;41.45
51081;BME280;37130;55.670;37.596;2023-09-12T09:43:20;99982.72;;;21.34;40.42
51081;BME280;37130;55.670;37.596;2023-09-12T09:45:48;100007.03;;;21.22;41.12
51081;BME280;37130;55.670;37.596;2023-09-12T09:48:25;100002.75;;;20.99;41.39
51081;BME280;37130;55.670;37.596;2023-09-12T09:51:02;100000.53;;;20.72;41.42
51081;BME280;37130;55.670;37.596;2023-09-12T09:53:30;99915.81;;;20.23;42.33
51081;BME280;37130;55.670;37.596;2023-09-12T09:56:14;99863.78;;;20.01;41.05
51081;BME280;37130;55.670;37.596;2023-09-12T09:58:49;99992.16;;;20.86;41.92
51081;BME280;37130;55.670;37.596;2023-09-12T10:01:19;99994.94;;;20.96;42.26
51081;BME280;37130;55.670;37.596;2023-09-12T10:03:50;99998.41;;;21.08;41.50
51081;BME280;37130;55.670;37.596;2023-09-12T10:06:19;100001.38;;;21.05;42.28
51081;BME280;37130;55.670;37.596;2023-09-12T10:08:56;99858.75;;;20.08;41.63
51081;BME280;37130;55.670;37.596;2023-09-12T10:11:28;100004.59;;;20.66;42.06
51081;BME280;37130;55.670;37.596;2023-09-12T10:14:00;99908.41;;;19.92;43.04
51081;BME280;37130;55.670;37.596;2023-09-12T10:16:33;100004.72;;;20.53;41.73
51081;BME280;37130;55.670;37.596;2023-09-12T10:19:20;100007.41;;;20.10;42.16
51081;BME280;37130;55.670;37.596;2023-09-12T10:24:18;100008.63;;;19.95;42.97
51081;BME280;37130;55.670;37.596;2023-09-12T10:26:50;100001.75;;;19.90;43.44
51081;BME280;37130;55.670;37.596;2023-09-12T10:29:18;100000.78;;;20.14;43.94
51081;BME280;37130;55.670;37.596;2023-09-12T10:31:46;100010.44;;;20.28;43.38
51081;BME280;37130;55.670;37.596;2023-09-12T10:34:15;100011.28;;;20.06;43.61
51081;BME280;37130;55.670;37.596;2023-09-12T10:36:45;99927.09;;;19.38;43.33
51081;BME280;37130;55.670;37.596;2023-09-12T10:39:14;100005.56;;;19.88;43.64
51081;BME280;37130;55.670;37.596;2023-09-12T10:41:42;99996.50;;;20.11;43.74
51081;BME280;37130;55.670;37.596;2023-09-12T10:44:11;100018.09;;;20.32;43.33
51081;BME280;37130;55.670;37.596;2023-09-12T10:46:41;100008.66;;;20.49;43.05
51081;BME280;37130;55.670;37.596;2023-09-12T10:49:10;99999.25;;;20.32;43.06
51081;BME280;37130;55.670;37.596;2023-09-12T10:51:39;100001.84;;;20.34;43.32
51081;BME280;37130;55.670;37.596;2023-09-12T10:54:08;100002.28;;;20.50;42.59
51081;BME280;37130;55.670;37.596;2023-09-12T10:56:36;99995.31;;;20.59;42.51
51081;BME280;37130;55.670;37.596;2023-09-12T11:01:32;99960.81;;;20.53;42.52
51081;BME280;37130;55.670;37.596;2023-09-12T11:06:46;99992.78;;;20.35;41.96
51081;BME280;37130;55.670;37.596;2023-09-12T11:11:48;99993.38;;;20.82;42.04
51081;BME280;37130;55.670;37.596;2023-09-12T11:14:16;99949.38;;;20.72;41.82
51081;BME280;37130;55.670;37.596;2023-09-12T11:19:44;99996.09;;;20.82;41.15
51081;BME280;37130;55.670;37.596;2023-09-12T11:22:23;99992.63;;;20.48;41.42
51081;BME280;37130;55.670;37.596;2023-09-12T11:24:51;99955.31;;;19.88;42.14
51081;BME280;37130;55.670;37.596;2023-09-12T11:27:19;99976.97;;;19.98;42.19
51081;BME280;37130;55.670;37.596;2023-09-12T11:29:46;99989.91;;;20.16;41.93
51081;BME280;37130;55.670;37.596;2023-09-12T11:32:36;99985.06;;;20.42;40.85
51081;BME280;37130;55.670;37.596;2023-09-12T11:35:07;99932.84;;;20.44;40.60
51081;BME280;37130;55.670;37.596;2023-09-12T11:37:35;99852.59;;;20.17;40.36
51081;BME280;37130;55.670;37.596;2023-09-12T11:40:17;99949.94;;;20.87;40.69
51081;BME280;37130;55.670;37.596;2023-09-12T11:42:49;99984.38;;;21.04;41.66
51081;BME280;37130;55.670;37.596;2023-09-12T11:45:21;99953.16;;;20.81;40.96
51081;BME280;37130;55.670;37.596;2023-09-12T11:47:49;99981.31;;;20.97;41.16
51081;BME280;37130;55.670;37.596;2023-09-12T11:50:35;99896.84;;;20.56;41.01
51081;BME280;37130;55.670;37.596;2023-09-12T11:53:08;99966.28;;;20.95;40.69
51081;BME280;37130;55.670;37.596;2023-09-12T11:58:37;99970.00;;;20.83;40.41
51081;BME280;37130;55.670;37.596;2023-09-12T12:01:04;99898.41;;;20.27;40.23
51081;BME280;37130;55.670;37.596;2023-09-12T12:03:32;99956.94;;;20.57;41.11
51081;BME280;37130;55.670;37.596;2023-09-12T12:06:00;99946.63;;;20.51;41.17
51081;BME280;37130;55.670;37.596;2023-09-12T12:08:27;99977.06;;;20.95;41.14
51081;BME280;37130;55.670;37.596;2023-09-12T12:10:59;99983.09;;;20.87;40.61
51081;BME280;37130;55.670;37.596;2023-09-12T12:13:27;99952.00;;;20.62;40.29
51081;BME280;37130;55.670;37.596;2023-09-12T12:15:56;99945.03;;;20.48;40.58
51081;BME280;37130;55.670;37.596;2023-09-12T12:18:30;99947.63;;;20.50;41.34
51081;BME280;37130;55.670;37.596;2023-09-12T12:20:57;99963.41;;;20.43;41.60
51081;BME280;37130;55.670;37.596;2023-09-12T12:23:25;99964.44;;;20.31;44.43
51081;BME280;37130;55.670;37.596;2023-09-12T12:25:53;99908.38;;;20.04;41.76
51081;BME280;37130;55.670;37.596;2023-09-12T12:28:20;99896.03;;;20.01;42.04
51081;BME280;37130;55.670;37.596;2023-09-12T12:30:50;99904.94;;;20.13;41.69
51081;BME280;37130;55.670;37.596;2023-09-12T12:33:19;99937.22;;;20.45;43.39
51081;BME280;37130;55.670;37.596;2023-09-12T12:36:07;99912.34;;;20.32;41.91
51081;BME280;37130;55.670;37.596;2023-09-12T12:38:37;99970.06;;;20.71;41.41
51081;BME280;37130;55.670;37.596;2023-09-12T12:41:22;99926.00;;;20.40;42.08
51081;BME280;37130;55.670;37.596;2023-09-12T12:43:50;99969.47;;;20.68;41.67
51081;BME280;37130;55.670;37.596;2023-09-12T12:46:21;99956.13;;;20.66;43.17
51081;BME280;37130;55.670;37.596;2023-09-12T12:48:49;99945.63;;;20.63;42.63
51081;BME280;37130;55.670;37.596;2023-09-12T12:51:19;99876.69;;;20.19;42.43
51081;BME280;37130;55.670;37.596;2023-09-12T12:53:52;99967.84;;;20.76;42.94
51081;BME280;37130;55.670;37.596;2023-09-12T12:56:27;99965.88;;;20.46;42.63
51081;BME280;37130;55.670;37.596;2023-09-12T12:58:58;99820.78;;;19.24;43.08
51081;BME280;37130;55.670;37.596;2023-09-12T13:01:29;99957.78;;;19.91;43.90
51081;BME280;37130;55.670;37.596;2023-09-12T13:03:57;99823.34;;;19.03;43.85
51081;BME280;37130;55.670;37.596;2023-09-12T13:06:24;99963.91;;;19.82;44.58
51081;BME280;37130;55.670;37.596;2023-09-12T13:08:54;99952.63;;;19.66;44.30
51081;BME280;37130;55.670;37.596;2023-09-12T13:11:21;99971.47;;;19.77;44.14
51081;BME280;37130;55.670;37.596;2023-09-12T13:13:49;99930.28;;;19.54;44.55
51081;BME280;37130;55.670;37.596;2023-09-12T13:16:17;99943.09;;;19.62;44.39
51081;BME280;37130;55.670;37.596;2023-09-12T13:18:45;99964.41;;;19.76;44.31
51081;BME280;37130;55.670;37.596;2023-09-12T13:21:12;99967.34;;;19.73;44.46